createdAt,value
2022-11-16T00:04:22.398Z,2.90
2022-11-16T00:09:20.116Z,2.97
2022-11-16T00:14:05.876Z,3.70
2022-11-16T00:18:59.383Z,4.30
2022-11-16T00:23:44.712Z,3.50
2022-11-16T00:28:29.847Z,4.70
2022-11-16T00:33:18.254Z,3.33
2022-11-16T00:38:05.876Z,4.07
2022-11-16T00:42:51.261Z,4.28
2022-11-16T00:47:36.524Z,3.85
2022-11-16T00:52:21.539Z,4.13
2022-11-16T00:57:09.487Z,3.20
2022-11-16T01:01:54.559Z,3.42
2022-11-16T01:06:39.996Z,3.05
2022-11-16T01:11:37.359Z,3.35
2022-11-16T01:16:26.465Z,2.83
2022-11-16T01:21:12.009Z,2.92
2022-11-16T01:26:01.846Z,2.50
2022-11-16T01:30:51.225Z,2.95
2022-11-16T01:35:39.112Z,3.28
2022-11-16T01:40:24.109Z,3.25
2022-11-16T01:45:19.826Z,2.83
2022-11-16T01:50:13.476Z,3.20
2022-11-16T01:55:02.023Z,3.15
2022-11-16T01:59:49.219Z,3.13
2022-11-16T02:04:34.579Z,3.50
2022-11-16T02:09:48.527Z,3.78
2022-11-16T02:14:51.669Z,3.65
2022-11-16T02:20:05.728Z,3.80
2022-11-16T02:24:59.741Z,3.28
2022-11-16T02:29:50.947Z,4.10
2022-11-16T02:34:40.605Z,3.42
2022-11-16T02:39:30.032Z,3.63
2022-11-16T02:44:18.749Z,3.25
2022-11-16T02:49:10.395Z,3.22
2022-11-16T02:54:04.583Z,3.40
2022-11-16T02:58:50.740Z,2.67
2022-11-16T03:03:44.408Z,3.33
2022-11-16T03:08:35.816Z,3.58
2022-11-16T03:13:24.328Z,2.97
2022-11-16T03:18:11.553Z,3.17
2022-11-16T03:23:00.741Z,3.92
2022-11-16T03:27:55.803Z,4.50
2022-11-16T03:32:49.053Z,4.35
2022-11-16T03:37:34.966Z,3.60
2022-11-16T03:42:21.647Z,3.30
2022-11-16T03:47:09.400Z,3.20
2022-11-16T03:51:55.177Z,3.30
2022-11-16T03:56:40.151Z,3.58
2022-11-16T04:01:25.523Z,3.97
2022-11-16T04:06:25.988Z,3.47
2022-11-16T04:11:27.572Z,4.30
2022-11-16T04:16:26.129Z,4.35
2022-11-16T04:21:34.214Z,2.80
2022-11-16T04:26:39.720Z,3.30
2022-11-16T04:31:37.349Z,2.72
2022-11-16T04:36:37.696Z,3.75
2022-11-16T04:41:35.344Z,2.80
2022-11-16T04:46:32.680Z,2.75
2022-11-16T04:51:17.922Z,3.00
2022-11-16T04:56:05.517Z,3.85
2022-11-16T05:00:50.795Z,2.08
2022-11-16T05:05:35.762Z,2.60
2022-11-16T05:10:21.223Z,2.80
2022-11-16T05:15:10.158Z,3.30
2022-11-16T05:20:07.752Z,3.70
2022-11-16T05:24:53.320Z,2.83
2022-11-16T05:29:39.208Z,3.13
2022-11-16T05:34:26.858Z,3.03
2022-11-16T05:39:12.134Z,4.20
2022-11-16T05:43:57.847Z,2.78
2022-11-16T05:48:43.367Z,3.13
2022-11-16T05:53:30.977Z,3.00
2022-11-16T05:58:16.348Z,3.05
2022-11-16T06:03:01.511Z,3.33
2022-11-16T06:07:46.839Z,3.00
2022-11-16T06:12:34.439Z,3.35
2022-11-16T06:17:19.699Z,2.50
2022-11-16T06:22:04.709Z,2.92
2022-11-16T06:26:49.980Z,2.53
2022-11-16T06:31:37.638Z,3.00
2022-11-16T06:36:22.921Z,3.03
2022-11-16T06:41:08.274Z,3.30
2022-11-16T06:45:56.050Z,3.75
2022-11-16T06:50:43.680Z,2.80
2022-11-16T06:55:29.079Z,3.33
2022-11-16T07:00:15.469Z,2.38
2022-11-16T07:05:03.800Z,2.50
2022-11-16T07:09:51.603Z,2.25
2022-11-16T07:14:36.904Z,2.60
2022-11-16T07:19:22.436Z,2.08
2022-11-16T07:24:07.939Z,4.25
2022-11-16T07:28:55.531Z,6.90
2022-11-16T07:33:41.272Z,4.05
2022-11-16T07:38:26.272Z,5.28
2022-11-16T07:43:11.537Z,3.33
2022-11-16T07:47:59.170Z,3.30
2022-11-16T07:52:46.630Z,2.95
2022-11-16T07:57:31.859Z,3.10
2022-11-16T08:02:17.208Z,3.72
2022-11-16T08:07:04.836Z,3.30
2022-11-16T08:11:51.460Z,3.03
2022-11-16T08:16:36.457Z,2.95
2022-11-16T08:21:22.123Z,2.83
2022-11-16T08:26:14.499Z,2.63
2022-11-16T08:35:44.943Z,5.97
2022-11-16T08:40:30.031Z,6.53
2022-11-16T08:45:18.133Z,7.50
2022-11-16T08:50:03.612Z,8.23
2022-11-16T08:54:48.897Z,9.38
2022-11-16T08:59:33.908Z,7.47
2022-11-16T09:04:22.984Z,9.70
2022-11-16T09:09:08.317Z,8.73
2022-11-16T09:13:55.625Z,7.20
2022-11-16T09:18:40.794Z,7.60
2022-11-16T09:23:28.707Z,12.38
2022-11-16T09:28:14.203Z,6.53
2022-11-16T09:33:01.527Z,6.30
2022-11-16T09:37:46.956Z,6.80
2022-11-16T09:42:50.589Z,7.45
2022-11-16T09:47:49.465Z,9.50
2022-11-16T09:52:39.764Z,6.13
2022-11-16T09:57:32.165Z,5.35
2022-11-16T10:02:29.271Z,6.38
2022-11-16T10:07:18.604Z,5.20
2022-11-16T10:12:24.511Z,5.05
2022-11-16T10:17:19.945Z,4.45
2022-11-16T10:22:13.513Z,4.50
2022-11-16T10:27:20.797Z,4.18
2022-11-16T10:32:19.299Z,4.60
2022-11-16T10:37:08.990Z,5.53
2022-11-16T10:41:54.583Z,6.03
2022-11-16T10:46:46.627Z,5.53
2022-11-16T10:51:31.796Z,4.65
2022-11-16T10:56:25.063Z,4.10
2022-11-16T11:01:13.874Z,5.03
2022-11-16T11:05:59.463Z,4.47
2022-11-16T11:10:45.577Z,4.05
2022-11-16T11:15:33.360Z,4.78
2022-11-16T11:20:25.124Z,3.53
2022-11-16T11:25:23.369Z,3.45
2022-11-16T11:30:19.232Z,3.30
2022-11-16T11:35:08.180Z,3.60
2022-11-16T11:40:08.348Z,2.80
2022-11-16T11:45:00.632Z,2.55
2022-11-16T11:54:46.042Z,3.13
2022-11-16T11:59:31.429Z,3.03
2022-11-16T12:04:46.369Z,3.03
2022-11-16T12:09:43.789Z,2.40
2022-11-16T12:14:40.502Z,2.50
2022-11-16T12:19:47.199Z,3.08
2022-11-16T12:24:45.828Z,3.10
2022-11-16T12:29:40.262Z,3.33
2022-11-16T12:34:40.418Z,2.78
2022-11-16T12:39:27.307Z,2.50
2022-11-16T12:44:18.421Z,2.00
2022-11-16T12:49:29.595Z,2.67
2022-11-16T12:55:03.969Z,1.90
2022-11-16T13:00:05.085Z,1.90
2022-11-16T13:04:57.689Z,1.90
2022-11-16T13:09:46.336Z,2.28
2022-11-16T13:14:39.772Z,2.20
2022-11-16T13:19:27.964Z,2.63
2022-11-16T13:24:27.310Z,2.80
2022-11-16T13:29:23.412Z,2.45
2022-11-16T13:34:15.573Z,2.20
2022-11-16T13:39:03.479Z,2.50
2022-11-16T13:43:51.171Z,2.33
2022-11-16T13:48:39.524Z,1.85
2022-11-16T13:58:49.715Z,1.92
2022-11-16T14:03:41.323Z,1.90
2022-11-16T14:08:49.144Z,1.80
2022-11-16T14:13:47.392Z,2.03
2022-11-16T14:18:38.270Z,2.55
2022-11-16T14:23:33.894Z,1.70
2022-11-16T14:28:41.872Z,2.05
2022-11-16T14:33:34.314Z,1.70
2022-11-16T14:38:27.477Z,1.67
2022-11-16T14:43:21.219Z,2.05
2022-11-16T14:48:08.811Z,1.52
2022-11-16T14:53:00.279Z,1.83
2022-11-16T14:57:45.400Z,1.60
2022-11-16T15:02:31.059Z,1.55
2022-11-16T15:07:17.449Z,1.50
2022-11-16T15:12:20.045Z,1.75
2022-11-16T15:17:05.671Z,1.30
2022-11-16T15:21:55.453Z,0.90
2022-11-16T15:26:42.031Z,1.35
2022-11-16T15:31:29.689Z,1.30
2022-11-16T15:36:34.185Z,1.05
2022-11-16T15:41:21.924Z,1.30
2022-11-16T15:46:08.919Z,1.05
2022-11-16T15:51:10.843Z,1.30
2022-11-16T15:55:56.224Z,1.08
2022-11-16T16:00:41.595Z,1.00
2022-11-16T16:05:39.891Z,2.67
2022-11-16T16:10:29.042Z,1.70
2022-11-16T16:15:26.337Z,1.63
2022-11-16T16:20:21.176Z,1.60
2022-11-16T16:25:08.689Z,1.10
2022-11-16T16:29:58.809Z,1.50
2022-11-16T16:34:44.316Z,1.42
2022-11-16T16:39:32.081Z,1.50
2022-11-16T16:44:18.461Z,1.40
2022-11-16T16:49:06.349Z,2.33
2022-11-16T16:53:51.369Z,2.65
2022-11-16T16:58:36.669Z,4.10
2022-11-16T17:03:21.851Z,4.00
2022-11-16T17:08:09.952Z,4.72
2022-11-16T17:12:56.765Z,3.55
2022-11-16T17:17:43.072Z,2.95
2022-11-16T17:22:28.497Z,3.97
2022-11-16T17:27:16.201Z,4.60
2022-11-16T17:32:01.584Z,4.50
2022-11-16T17:36:47.630Z,4.68
2022-11-16T17:41:32.811Z,3.70
2022-11-16T17:46:23.567Z,2.55
2022-11-16T17:51:09.336Z,2.75
2022-11-16T17:55:54.732Z,3.50
2022-11-16T18:00:40.120Z,3.70
2022-11-16T18:05:28.068Z,3.03
2022-11-16T18:10:17.941Z,2.88
2022-11-16T18:15:27.575Z,2.85
2022-11-16T18:20:10.847Z,2.95
2022-11-16T18:24:58.442Z,3.65
2022-11-16T18:29:43.736Z,5.60
2022-11-16T18:34:29.284Z,5.82
2022-11-16T18:39:14.587Z,4.30
2022-11-16T18:44:03.969Z,3.13
2022-11-16T18:48:49.477Z,3.90
2022-11-16T18:53:36.638Z,6.47
2022-11-16T18:58:48.524Z,5.05
2022-11-16T19:03:30.041Z,2.78
2022-11-16T19:08:15.061Z,3.22
2022-11-16T19:13:00.384Z,3.67
2022-11-16T19:18:06.749Z,4.50
2022-11-16T19:22:53.284Z,3.85
2022-11-16T19:27:38.588Z,4.80
2022-11-16T19:32:23.864Z,4.00
2022-11-16T19:37:09.136Z,3.13
2022-11-16T19:41:56.808Z,5.20
2022-11-16T19:46:42.186Z,3.33
2022-11-16T19:51:29.576Z,2.70
2022-11-16T19:56:17.608Z,3.55
2022-11-16T20:01:10.391Z,2.80
2022-11-16T20:05:55.940Z,3.50
2022-11-16T20:10:41.008Z,3.92
2022-11-16T20:15:26.492Z,5.07
2022-11-16T20:20:14.705Z,5.50
2022-11-16T20:24:59.960Z,5.10
2022-11-16T20:29:44.959Z,6.30
2022-11-16T20:34:30.938Z,5.63
2022-11-16T20:39:20.149Z,4.75
2022-11-16T20:44:05.826Z,7.20
2022-11-16T20:48:51.497Z,6.88
2022-11-16T20:53:37.382Z,5.35
2022-11-16T20:58:25.192Z,7.93
2022-11-16T21:03:10.469Z,7.60
2022-11-16T21:07:55.484Z,9.32
2022-11-16T21:12:53.125Z,9.00
2022-11-16T21:17:40.766Z,8.65
2022-11-16T21:22:31.043Z,8.70
2022-11-16T21:27:17.184Z,8.77
2022-11-16T21:32:03.016Z,8.98
2022-11-16T21:36:52.416Z,9.77
2022-11-16T21:41:37.662Z,10.77
2022-11-16T21:46:24.988Z,10.48
2022-11-16T21:51:11.835Z,10.82
2022-11-16T21:55:59.646Z,10.65
2022-11-16T22:00:44.936Z,10.65
2022-11-16T22:05:42.628Z,10.95
2022-11-16T22:10:28.629Z,12.48
2022-11-16T22:15:16.969Z,13.30
2022-11-16T22:20:02.058Z,13.35
2022-11-16T22:24:47.567Z,12.43
2022-11-16T22:29:32.709Z,11.82
2022-11-16T22:34:20.620Z,12.95
2022-11-16T22:39:05.839Z,11.40
2022-11-16T22:43:51.172Z,11.15
2022-11-16T22:48:37.885Z,10.82
2022-11-16T22:53:25.828Z,10.15
2022-11-16T22:58:10.817Z,9.90
2022-11-16T23:02:56.212Z,9.38
2022-11-16T23:07:44.870Z,9.10
2022-11-16T23:12:44.866Z,11.00
2022-11-16T23:17:30.209Z,9.55
2022-11-16T23:22:29.922Z,10.25
2022-11-16T23:27:28.117Z,9.40
2022-11-16T23:32:16.096Z,10.20
2022-11-16T23:37:05.331Z,9.68
2022-11-16T23:42:02.693Z,9.63
2022-11-16T23:46:47.999Z,8.82
2022-11-16T23:51:35.989Z,8.75
2022-11-16T23:56:21.851Z,9.00
